首页
METAR-TAF:

METAR-TAF

机场 :

哈薩綠洲, 沙特阿拉伯

纬度: 25-18N, 经度: 049-29E, 海拔: 179米

当前天气观测

该预报发布于46分钟前的15:00 UTC
风速6节,风向
温度 18°C
湿度 22%
气压 1017 hPa
能见度10公里或以上
1500米以下无云,无积雨云

METAR: OEAH 291500Z 17006KT CAVOK 18/M04 Q1017 NOSIG

时间: 18:46 (15:46 UTC)

预报

该预报发布于4小时和46分钟前的11:00 UTC
预报有效从29日的 12点(UTC)到 30日的 18点(UTC)
风速12节,风向
能見度: 7000
少量云层高于4000英尺
散云层高于10000英尺
成为
从 29日的 18点(UTC)到 29日的 20点(UTC)
风速6节,风向西转西南

TAF: OEAH 291100Z 2912/3018 17012KT 7000 FEW040 SCT100 BECMG 2918/2920 25006KT

超过4000个机场的气象观测和天气预报(METAR&TAF报告)。

可查询的气象台以黄色和红色小点在地图上表示。

将鼠标移到小点上方,可查看气象台名称。

然后点击查看天气观测和预报。

如需切换地图:点击带黑十字的绿色按钮放大地图;点击带横线的绿色按钮缩小地图;或者点击绿色箭头查看邻近地区的地图。


METAR-TAF: